createdAt,value
2023-04-15T00:00:59.757Z,69.92
2023-04-15T00:03:28.890Z,70.01
2023-04-15T00:05:58.744Z,69.98
2023-04-15T00:08:26.776Z,69.95
2023-04-15T00:10:54.792Z,69.88
2023-04-15T00:13:22.853Z,69.94
2023-04-15T00:15:50.796Z,70.02
2023-04-15T00:18:18.750Z,70.16
2023-04-15T00:20:47.268Z,70.10
2023-04-15T00:23:15.176Z,70.04
2023-04-15T00:25:43.092Z,69.80
2023-04-15T00:28:11.279Z,69.63
2023-04-15T00:30:39.356Z,69.67
2023-04-15T00:33:08.057Z,69.75
2023-04-15T00:35:39.392Z,69.69
2023-04-15T00:38:10.077Z,69.75
2023-04-15T00:40:38.264Z,69.93
2023-04-15T00:43:07.148Z,70.06
2023-04-15T00:45:35.092Z,70.07
2023-04-15T00:48:03.849Z,70.19
2023-04-15T00:50:32.011Z,70.17
2023-04-15T00:53:00.129Z,70.41
2023-04-15T00:55:28.130Z,70.54
2023-04-15T00:57:57.536Z,70.89
2023-04-15T01:00:25.688Z,70.80
2023-04-15T01:02:53.978Z,70.84
2023-04-15T01:05:22.419Z,70.85
2023-04-15T01:07:50.738Z,70.87
2023-04-15T01:10:18.785Z,70.85
2023-04-15T01:12:47.081Z,70.89
2023-04-15T01:15:16.210Z,70.90
2023-04-15T01:17:44.229Z,71.05
2023-04-15T01:20:12.721Z,71.04
2023-04-15T01:22:41.431Z,71.05
2023-04-15T01:25:18.435Z,71.33
2023-04-15T01:27:46.592Z,71.42
2023-04-15T01:30:14.611Z,71.52
2023-04-15T01:32:42.686Z,71.53
2023-04-15T01:35:10.786Z,71.83
2023-04-15T01:37:38.786Z,72.18
2023-04-15T01:40:08.092Z,72.30
2023-04-15T01:42:37.717Z,72.32
2023-04-15T01:45:07.327Z,72.23
2023-04-15T01:47:35.336Z,72.05
2023-04-15T01:50:03.598Z,71.96
2023-04-15T01:52:32.229Z,71.59
2023-04-15T01:55:00.488Z,71.51
2023-04-15T01:57:28.525Z,71.33
2023-04-15T01:59:56.777Z,71.10
2023-04-15T02:02:25.038Z,71.00
2023-04-15T02:04:53.652Z,70.88
2023-04-15T02:07:21.978Z,70.73
2023-04-15T02:09:50.219Z,70.68
2023-04-15T02:12:18.212Z,70.57
2023-04-15T02:14:46.284Z,70.52
2023-04-15T02:17:14.367Z,70.71
2023-04-15T02:19:44.659Z,70.73
2023-04-15T02:22:19.060Z,70.78
2023-04-15T02:24:47.771Z,70.78
2023-04-15T02:27:17.854Z,70.79
2023-04-15T02:29:47.592Z,70.88
2023-04-15T02:32:15.620Z,70.77
2023-04-15T02:34:43.580Z,70.86
2023-04-15T02:37:13.708Z,70.90
2023-04-15T02:39:41.755Z,70.75
2023-04-15T02:42:11.623Z,70.85
2023-04-15T02:44:39.547Z,70.69
2023-04-15T02:47:07.569Z,70.63
2023-04-15T02:49:35.898Z,71.63
2023-04-15T02:52:03.865Z,73.34
2023-04-15T02:54:34.075Z,73.53
2023-04-15T02:57:02.252Z,73.76
2023-04-15T02:59:30.267Z,74.23
2023-04-15T03:02:01.087Z,74.04
2023-04-15T03:04:31.007Z,73.69
2023-04-15T03:06:59.080Z,73.66
2023-04-15T03:09:27.651Z,73.67
2023-04-15T03:11:57.055Z,73.85
2023-04-15T03:14:25.806Z,73.97
2023-04-15T03:16:53.855Z,74.31
2023-04-15T03:19:21.763Z,74.37
2023-04-15T03:21:49.649Z,74.49
2023-04-15T03:24:18.617Z,74.48
2023-04-15T03:26:46.647Z,74.47
2023-04-15T03:29:17.084Z,74.78
2023-04-15T03:31:45.028Z,75.59
2023-04-15T03:34:12.973Z,75.60
2023-04-15T03:36:41.500Z,75.31
2023-04-15T03:39:09.593Z,75.75
2023-04-15T03:41:37.621Z,75.90
2023-04-15T03:44:05.733Z,76.08
2023-04-15T03:46:33.683Z,76.17
2023-04-15T03:49:02.479Z,75.93
2023-04-15T03:51:31.599Z,76.29
2023-04-15T03:53:59.680Z,76.51
2023-04-15T03:56:27.901Z,76.72
2023-04-15T03:58:55.930Z,76.86
2023-04-15T04:01:23.888Z,77.00
2023-04-15T04:03:52.481Z,76.94
2023-04-15T04:06:20.911Z,77.01
2023-04-15T04:08:48.904Z,77.08
2023-04-15T04:11:17.367Z,77.12
2023-04-15T04:13:45.462Z,77.12
2023-04-15T04:16:13.560Z,77.10
2023-04-15T04:18:41.644Z,77.14
2023-04-15T04:21:10.163Z,76.98
2023-04-15T04:23:38.118Z,77.01
2023-04-15T04:26:06.262Z,76.91
2023-04-15T04:28:35.422Z,77.13
2023-04-15T04:31:03.367Z,77.32
2023-04-15T04:33:31.314Z,77.44
2023-04-15T04:35:59.355Z,77.48
2023-04-15T04:38:27.296Z,77.69
2023-04-15T04:40:55.416Z,78.24
2023-04-15T04:43:23.381Z,78.18
2023-04-15T04:45:51.520Z,78.30
2023-04-15T04:48:20.076Z,78.34
2023-04-15T04:50:48.468Z,78.37
2023-04-15T04:53:16.413Z,78.22
2023-04-15T04:55:44.373Z,77.99
2023-04-15T04:58:12.587Z,77.92
2023-04-15T05:00:41.009Z,77.76
2023-04-15T05:03:09.324Z,77.80
2023-04-15T05:05:39.654Z,77.60
2023-04-15T05:08:07.905Z,77.29
2023-04-15T05:10:36.410Z,77.23
2023-04-15T05:13:04.323Z,78.17
2023-04-15T05:15:33.155Z,78.09
2023-04-15T05:18:01.453Z,77.97
2023-04-15T05:20:29.633Z,78.18
2023-04-15T05:22:57.594Z,78.34
2023-04-15T05:25:26.104Z,78.31
2023-04-15T05:27:54.108Z,78.18
2023-04-15T05:30:22.404Z,78.34
2023-04-15T05:32:50.478Z,78.39
2023-04-15T05:35:19.135Z,79.00
2023-04-15T05:37:47.194Z,79.13
2023-04-15T05:40:15.468Z,79.12
2023-04-15T05:42:43.400Z,78.72
2023-04-15T05:45:11.606Z,78.58
2023-04-15T05:47:39.562Z,78.52
2023-04-15T05:50:08.306Z,78.26
2023-04-15T05:52:37.050Z,78.16
2023-04-15T05:55:05.634Z,77.93
2023-04-15T05:57:33.662Z,77.69
2023-04-15T06:00:01.655Z,77.21
2023-04-15T06:02:37.997Z,77.03
2023-04-15T06:05:10.101Z,76.99
2023-04-15T06:07:38.919Z,76.91
2023-04-15T06:10:07.998Z,76.81
2023-04-15T06:12:36.204Z,76.40
2023-04-15T06:15:05.045Z,76.38
2023-04-15T06:17:33.053Z,76.22
2023-04-15T06:20:01.106Z,76.09
2023-04-15T06:22:29.194Z,76.17
2023-04-15T06:24:57.222Z,76.68
2023-04-15T06:27:25.259Z,77.07
2023-04-15T06:29:53.234Z,77.17
2023-04-15T06:32:21.385Z,77.56
2023-04-15T06:34:49.378Z,77.84
2023-04-15T06:37:17.254Z,78.05
2023-04-15T06:39:45.244Z,77.85
2023-04-15T06:42:13.401Z,77.60
2023-04-15T06:44:42.478Z,77.38
2023-04-15T06:47:10.488Z,77.09
2023-04-15T06:49:38.729Z,75.91
2023-04-15T06:52:06.826Z,74.95
2023-04-15T06:54:34.782Z,73.71
2023-04-15T06:57:02.909Z,72.53
2023-04-15T06:59:31.266Z,72.58
2023-04-15T07:01:59.243Z,71.58
2023-04-15T07:04:28.108Z,71.31
2023-04-15T07:06:56.913Z,71.86
2023-04-15T07:09:25.699Z,71.69
2023-04-15T07:11:53.816Z,70.78
2023-04-15T07:14:21.849Z,70.50
2023-04-15T07:16:50.000Z,71.14
2023-04-15T07:19:17.908Z,71.60
2023-04-15T07:21:45.924Z,70.92
2023-04-15T07:24:17.034Z,68.52
2023-04-15T07:26:45.368Z,67.85
2023-04-15T07:29:13.416Z,65.86
2023-04-15T07:31:42.380Z,64.22
2023-04-15T07:34:10.874Z,65.54
2023-04-15T07:36:39.030Z,63.25
2023-04-15T07:39:07.229Z,59.75
2023-04-15T07:41:35.261Z,58.47
2023-04-15T07:44:03.184Z,55.05
2023-04-15T07:46:31.168Z,54.88
2023-04-15T07:48:59.223Z,56.68
2023-04-15T07:51:27.335Z,60.02
2023-04-15T07:53:55.280Z,59.57
2023-04-15T07:56:23.485Z,58.84
2023-04-15T07:58:51.671Z,59.13
2023-04-15T08:01:19.637Z,58.29
2023-04-15T08:03:48.614Z,57.43
2023-04-15T08:06:16.800Z,56.02
2023-04-15T08:08:44.722Z,55.04
2023-04-15T08:11:13.192Z,55.01
2023-04-15T08:13:41.288Z,54.35
2023-04-15T08:16:13.944Z,52.37
2023-04-15T08:18:41.989Z,52.69
2023-04-15T08:21:10.995Z,52.90
2023-04-15T08:23:39.635Z,53.26
2023-04-15T08:26:08.823Z,52.41
2023-04-15T08:28:39.655Z,53.08
2023-04-15T08:31:08.197Z,55.64
2023-04-15T08:33:36.372Z,56.95
2023-04-15T08:36:04.897Z,56.97
2023-04-15T08:38:33.116Z,55.87
2023-04-15T08:41:08.393Z,56.37
2023-04-15T08:43:45.895Z,56.03
2023-04-15T08:46:15.678Z,55.91
2023-04-15T08:48:44.749Z,55.70
2023-04-15T08:51:16.117Z,55.68
2023-04-15T08:53:47.958Z,54.55
2023-04-15T08:56:16.999Z,54.80
2023-04-15T08:58:46.594Z,54.05
2023-04-15T09:01:15.156Z,53.66
2023-04-15T09:03:44.318Z,51.74
2023-04-15T09:06:12.941Z,51.55
2023-04-15T09:08:41.449Z,49.72
2023-04-15T09:11:09.415Z,47.01
2023-04-15T09:13:37.513Z,46.41
2023-04-15T09:16:06.772Z,45.87
2023-04-15T09:18:36.867Z,45.89
2023-04-15T09:21:14.146Z,46.65
2023-04-15T09:23:56.314Z,46.52
2023-04-15T09:26:35.327Z,44.35
2023-04-15T09:29:07.944Z,43.97
2023-04-15T09:31:37.080Z,43.18
2023-04-15T09:34:05.792Z,41.78
2023-04-15T09:36:47.034Z,41.56
2023-04-15T09:39:16.152Z,41.78
2023-04-15T09:41:45.109Z,41.78
2023-04-15T09:44:27.036Z,40.28
2023-04-15T09:46:54.949Z,39.40
2023-04-15T09:49:23.405Z,39.77
2023-04-15T09:52:03.970Z,38.90
2023-04-15T09:54:38.272Z,38.32
2023-04-15T09:57:08.144Z,38.52
2023-04-15T09:59:36.358Z,38.84
2023-04-15T10:02:06.504Z,38.86
2023-04-15T10:04:39.363Z,39.44
2023-04-15T10:07:09.803Z,40.53
2023-04-15T10:09:39.180Z,41.88
2023-04-15T10:12:07.499Z,42.25
2023-04-15T10:14:38.826Z,42.86
2023-04-15T10:17:08.364Z,43.51
2023-04-15T10:19:38.029Z,43.22
2023-04-15T10:22:06.676Z,43.11
2023-04-15T10:24:35.052Z,42.59
2023-04-15T10:27:07.085Z,42.10
2023-04-15T10:29:35.177Z,41.02
2023-04-15T10:32:03.861Z,41.58
2023-04-15T10:34:32.843Z,41.49
2023-04-15T10:37:04.806Z,41.38
2023-04-15T10:39:38.915Z,40.12
2023-04-15T10:42:15.424Z,40.03
2023-04-15T10:44:54.339Z,38.56
2023-04-15T10:47:22.717Z,37.93
2023-04-15T10:49:57.087Z,39.04
2023-04-15T10:52:27.854Z,38.18
2023-04-15T10:55:03.432Z,38.56
2023-04-15T10:57:42.403Z,37.09
2023-04-15T11:00:17.528Z,37.37
2023-04-15T11:02:52.478Z,36.75
2023-04-15T11:05:23.140Z,36.35
2023-04-15T11:07:54.404Z,37.26
2023-04-15T11:10:25.805Z,37.04
2023-04-15T11:12:58.116Z,36.94
2023-04-15T11:15:45.114Z,36.06
2023-04-15T11:18:17.977Z,35.55
2023-04-15T11:20:48.388Z,34.85
2023-04-15T11:23:19.179Z,35.48
2023-04-15T11:25:48.574Z,35.18
2023-04-15T11:28:16.927Z,34.65
2023-04-15T11:30:45.418Z,35.36
2023-04-15T11:33:14.135Z,35.20
2023-04-15T11:35:42.663Z,35.23
2023-04-15T11:38:13.872Z,35.81
2023-04-15T11:40:46.757Z,35.97
2023-04-15T11:43:21.155Z,35.75
2023-04-15T11:46:03.201Z,35.86
2023-04-15T11:48:36.228Z,36.21
2023-04-15T11:51:08.264Z,36.50
2023-04-15T11:53:42.727Z,35.77
2023-04-15T11:56:17.889Z,35.51
2023-04-15T11:58:46.711Z,35.11
2023-04-15T12:01:14.853Z,35.00
2023-04-15T12:03:45.636Z,35.82
2023-04-15T12:06:22.709Z,36.87
2023-04-15T12:09:12.133Z,37.13
2023-04-15T12:11:49.938Z,36.73
2023-04-15T12:14:17.999Z,36.39
2023-04-15T12:16:50.327Z,35.89
2023-04-15T12:19:25.384Z,35.31
2023-04-15T12:22:00.512Z,34.29
2023-04-15T12:24:31.872Z,35.07
2023-04-15T12:27:07.858Z,35.08
2023-04-15T12:29:38.687Z,35.46
2023-04-15T12:32:11.867Z,34.97
2023-04-15T12:34:45.204Z,35.47
2023-04-15T12:37:14.488Z,34.96
2023-04-15T12:39:44.335Z,35.90
2023-04-15T12:42:13.099Z,35.78
2023-04-15T12:44:41.413Z,34.51
2023-04-15T12:47:10.971Z,31.49
2023-04-15T12:49:39.804Z,30.08
2023-04-15T12:52:08.025Z,29.92
2023-04-15T12:54:36.583Z,28.84
2023-04-15T12:57:07.164Z,28.78
2023-04-15T12:59:36.589Z,28.32
2023-04-15T13:02:04.876Z,27.30
2023-04-15T13:04:33.412Z,26.89
2023-04-15T13:07:02.765Z,27.56
2023-04-15T13:09:31.400Z,26.94
2023-04-15T13:11:59.540Z,26.88
2023-04-15T13:14:27.601Z,27.40
2023-04-15T13:16:55.724Z,26.86
2023-04-15T13:19:23.829Z,26.38
2023-04-15T13:21:51.810Z,26.94
2023-04-15T13:24:19.736Z,27.26
2023-04-15T13:26:50.105Z,27.87
2023-04-15T13:29:18.353Z,27.97
2023-04-15T13:31:46.385Z,28.05
2023-04-15T13:34:14.433Z,28.12
2023-04-15T13:36:42.399Z,28.85
2023-04-15T13:39:10.361Z,29.16
2023-04-15T13:41:38.404Z,29.40
2023-04-15T13:44:07.318Z,28.82
2023-04-15T13:46:35.577Z,27.91
2023-04-15T13:49:03.599Z,27.65
2023-04-15T13:51:31.979Z,27.13
2023-04-15T13:53:59.952Z,27.27
2023-04-15T13:56:28.078Z,28.19
2023-04-15T13:58:59.035Z,30.10
2023-04-15T14:01:27.224Z,31.55
2023-04-15T14:03:56.213Z,32.45
2023-04-15T14:06:24.918Z,32.38
2023-04-15T14:08:53.157Z,31.75
2023-04-15T14:11:21.252Z,32.08
2023-04-15T14:13:49.288Z,32.15
2023-04-15T14:16:17.498Z,32.19
2023-04-15T14:18:45.544Z,32.81
2023-04-15T14:21:13.767Z,32.97
2023-04-15T14:23:41.889Z,33.59
2023-04-15T14:26:10.182Z,34.01
2023-04-15T14:28:39.484Z,34.02
2023-04-15T14:31:07.827Z,34.27
2023-04-15T14:33:36.208Z,34.33
2023-04-15T14:36:04.504Z,34.27
2023-04-15T14:38:38.459Z,34.34
2023-04-15T14:41:08.178Z,34.32
2023-04-15T14:43:36.811Z,34.25
2023-04-15T14:46:05.216Z,34.37
2023-04-15T14:48:33.286Z,34.80
2023-04-15T14:51:01.353Z,34.82
2023-04-15T14:53:29.715Z,34.66
2023-04-15T14:55:57.889Z,34.98
2023-04-15T14:58:25.962Z,35.33
2023-04-15T15:00:54.084Z,34.93
2023-04-15T15:03:22.248Z,35.42
2023-04-15T15:05:50.847Z,35.63
2023-04-15T15:08:19.055Z,35.87
2023-04-15T15:10:49.322Z,35.92
2023-04-15T15:13:19.148Z,37.37
2023-04-15T15:15:49.410Z,43.94
2023-04-15T15:18:19.267Z,47.89
2023-04-15T15:20:47.989Z,48.68
2023-04-15T15:23:16.362Z,51.78
2023-04-15T15:26:04.902Z,53.54
2023-04-15T15:28:33.055Z,54.94
2023-04-15T15:31:01.141Z,56.73
2023-04-15T15:33:30.195Z,58.27
2023-04-15T15:35:58.816Z,59.18
2023-04-15T15:38:26.848Z,59.40
2023-04-15T15:40:54.934Z,59.34
2023-04-15T15:43:23.131Z,59.82
2023-04-15T15:45:52.973Z,59.63
2023-04-15T15:48:23.971Z,60.23
2023-04-15T15:50:52.628Z,57.04
2023-04-15T15:53:40.579Z,53.68
2023-04-15T15:56:08.558Z,53.42
2023-04-15T15:58:37.027Z,54.01
2023-04-15T16:01:06.008Z,53.22
2023-04-15T16:03:34.315Z,52.13
2023-04-15T16:06:03.879Z,51.67
2023-04-15T16:08:31.916Z,51.90
2023-04-15T16:11:00.177Z,53.21
2023-04-15T16:13:28.163Z,53.57
2023-04-15T16:15:56.186Z,52.83
2023-04-15T16:18:24.278Z,51.65
2023-04-15T16:20:52.274Z,50.56
2023-04-15T16:23:20.668Z,50.19
2023-04-15T16:25:50.560Z,50.08
2023-04-15T16:28:26.415Z,50.13
2023-04-15T16:30:57.258Z,50.24
2023-04-15T16:33:26.708Z,49.88
2023-04-15T16:35:54.744Z,49.50
2023-04-15T16:38:22.836Z,48.97
2023-04-15T16:40:52.004Z,49.07
2023-04-15T16:43:20.195Z,49.03
2023-04-15T16:45:51.563Z,49.37
2023-04-15T16:48:20.719Z,49.64
2023-04-15T16:50:49.433Z,49.85
2023-04-15T16:53:17.562Z,50.25
2023-04-15T16:55:45.748Z,50.45
2023-04-15T16:58:13.789Z,50.79
2023-04-15T17:00:41.805Z,50.96
2023-04-15T17:03:09.975Z,51.13
2023-04-15T17:05:38.380Z,51.45
2023-04-15T17:08:06.447Z,51.72
2023-04-15T17:10:34.576Z,52.02
2023-04-15T17:13:02.488Z,52.23
2023-04-15T17:15:30.790Z,52.65
2023-04-15T17:17:58.814Z,52.96
2023-04-15T17:20:26.846Z,53.45
2023-04-15T17:22:55.078Z,53.82
2023-04-15T17:25:23.658Z,54.28
2023-04-15T17:27:51.550Z,55.18
2023-04-15T17:30:19.545Z,55.78
2023-04-15T17:32:47.572Z,55.59
2023-04-15T17:35:15.615Z,55.50
2023-04-15T17:37:43.681Z,55.50
2023-04-15T17:40:12.164Z,55.74
2023-04-15T17:42:40.751Z,56.02
2023-04-15T17:45:09.312Z,56.39
2023-04-15T17:47:37.609Z,56.95
2023-04-15T17:50:08.075Z,57.36
2023-04-15T17:52:36.041Z,58.23
2023-04-15T17:55:04.365Z,58.32
2023-04-15T17:57:32.367Z,58.07
2023-04-15T18:00:00.470Z,58.22
2023-04-15T18:02:28.816Z,58.63
2023-04-15T18:04:57.273Z,58.76
2023-04-15T18:07:25.689Z,58.85
2023-04-15T18:09:55.864Z,59.34
2023-04-15T18:12:23.930Z,59.69
2023-04-15T18:14:51.898Z,59.64
2023-04-15T18:17:20.639Z,59.85
2023-04-15T18:19:48.902Z,60.08
2023-04-15T18:22:17.016Z,60.60
2023-04-15T18:24:44.919Z,61.24
2023-04-15T18:27:12.927Z,62.83
2023-04-15T18:29:41.516Z,62.93
2023-04-15T18:32:10.121Z,63.22
2023-04-15T18:34:38.450Z,63.34
2023-04-15T18:37:06.454Z,63.01
2023-04-15T18:39:34.343Z,62.92
2023-04-15T18:42:02.373Z,63.27
2023-04-15T18:44:30.454Z,62.88
2023-04-15T18:46:58.383Z,62.67
2023-04-15T18:49:27.542Z,62.53
2023-04-15T18:51:55.612Z,62.56
2023-04-15T18:54:23.658Z,62.61
2023-04-15T18:56:52.406Z,62.49
2023-04-15T18:59:29.460Z,62.55
2023-04-15T19:01:59.928Z,62.67
2023-04-15T19:04:31.355Z,63.31
2023-04-15T19:06:59.637Z,63.21
2023-04-15T19:09:28.847Z,63.17
2023-04-15T19:11:57.676Z,63.39
2023-04-15T19:14:25.783Z,63.66
2023-04-15T19:16:53.752Z,63.70
2023-04-15T19:19:21.734Z,63.67
2023-04-15T19:21:50.421Z,63.72
2023-04-15T19:24:19.667Z,63.78
2023-04-15T19:26:50.381Z,63.88
2023-04-15T19:29:19.087Z,63.93
2023-04-15T19:31:47.075Z,64.34
2023-04-15T19:34:15.456Z,64.31
2023-04-15T19:36:43.556Z,64.40
2023-04-15T19:39:11.700Z,64.53
2023-04-15T19:41:39.702Z,64.60
2023-04-15T19:44:07.781Z,64.43
2023-04-15T19:46:35.875Z,64.34
2023-04-15T19:49:04.135Z,64.22
2023-04-15T19:51:32.696Z,64.03
2023-04-15T19:54:00.770Z,63.88
2023-04-15T19:56:29.386Z,63.69
2023-04-15T19:58:57.325Z,63.45
2023-04-15T20:01:25.403Z,63.41
2023-04-15T20:03:54.546Z,63.45
2023-04-15T20:06:22.668Z,63.36
2023-04-15T20:08:50.894Z,63.46
2023-04-15T20:11:18.998Z,63.54
2023-04-15T20:13:47.008Z,63.42
2023-04-15T20:16:15.180Z,64.06
2023-04-15T20:18:43.072Z,64.81
2023-04-15T20:21:11.154Z,65.49
2023-04-15T20:23:40.863Z,65.93
2023-04-15T20:26:08.808Z,66.48
2023-04-15T20:28:36.751Z,67.17
2023-04-15T20:31:04.631Z,66.93
2023-04-15T20:33:32.814Z,66.62
2023-04-15T20:36:01.229Z,66.47
2023-04-15T20:38:29.163Z,66.30
2023-04-15T20:40:58.176Z,66.09
2023-04-15T20:43:26.178Z,65.90
2023-04-15T20:45:56.622Z,65.82
2023-04-15T20:48:26.292Z,65.94
2023-04-15T20:50:54.325Z,66.28
2023-04-15T20:53:22.508Z,66.19
2023-04-15T20:55:50.706Z,66.28
2023-04-15T20:58:18.626Z,66.55
2023-04-15T21:00:47.230Z,66.56
2023-04-15T21:03:15.500Z,66.62
2023-04-15T21:05:43.556Z,66.73
2023-04-15T21:08:13.996Z,66.81
2023-04-15T21:10:41.863Z,66.80
2023-04-15T21:13:09.835Z,67.00
2023-04-15T21:15:37.764Z,67.29
2023-04-15T21:18:06.037Z,67.39
2023-04-15T21:20:33.977Z,67.36
2023-04-15T21:23:02.009Z,67.47
2023-04-15T21:25:29.976Z,67.67
2023-04-15T21:27:58.470Z,67.75
2023-04-15T21:30:26.602Z,67.83
2023-04-15T21:32:55.913Z,67.99
2023-04-15T21:35:23.883Z,68.07
2023-04-15T21:37:51.883Z,68.18
2023-04-15T21:40:20.294Z,68.35
2023-04-15T21:42:49.262Z,68.34
2023-04-15T21:45:17.425Z,68.42
2023-04-15T21:48:05.349Z,68.63
2023-04-15T21:50:33.132Z,68.72
2023-04-15T21:53:01.158Z,68.61
2023-04-15T21:55:29.225Z,68.78
2023-04-15T21:57:57.202Z,68.81
2023-04-15T22:00:25.202Z,69.16
2023-04-15T22:02:53.341Z,69.09
2023-04-15T22:05:21.424Z,69.07
2023-04-15T22:07:49.487Z,69.13
2023-04-15T22:10:17.562Z,68.98
2023-04-15T22:12:45.444Z,68.95
2023-04-15T22:15:13.711Z,68.85
2023-04-15T22:17:41.751Z,68.73
2023-04-15T22:20:10.362Z,68.52
2023-04-15T22:22:44.165Z,68.54
2023-04-15T22:25:12.910Z,68.46
2023-04-15T22:27:40.879Z,68.40
2023-04-15T22:30:10.571Z,68.48
2023-04-15T22:32:38.556Z,68.46
2023-04-15T22:35:06.924Z,68.72
2023-04-15T22:37:35.277Z,68.88
2023-04-15T22:40:03.532Z,69.01
2023-04-15T22:42:31.480Z,69.10
2023-04-15T22:44:59.357Z,69.16
2023-04-15T22:47:27.400Z,69.19
2023-04-15T22:49:55.327Z,69.40
2023-04-15T22:52:30.175Z,69.54
2023-04-15T22:54:59.885Z,69.56
2023-04-15T22:57:28.666Z,69.66
2023-04-15T22:59:56.708Z,69.74
2023-04-15T23:02:24.938Z,69.81
2023-04-15T23:04:53.185Z,69.87
2023-04-15T23:07:21.349Z,69.89
2023-04-15T23:09:49.323Z,69.93
2023-04-15T23:12:17.289Z,69.97
2023-04-15T23:14:45.280Z,70.04
2023-04-15T23:17:13.183Z,70.10
2023-04-15T23:19:41.221Z,70.20
2023-04-15T23:22:10.734Z,70.28
2023-04-15T23:24:38.762Z,70.50
2023-04-15T23:27:06.702Z,70.74
2023-04-15T23:29:34.611Z,70.87
2023-04-15T23:32:02.666Z,70.99
2023-04-15T23:34:30.852Z,71.23
2023-04-15T23:36:58.758Z,71.34
2023-04-15T23:39:26.786Z,71.46
2023-04-15T23:41:54.913Z,71.52
2023-04-15T23:44:23.377Z,71.75
2023-04-15T23:46:51.468Z,71.80
2023-04-15T23:49:20.490Z,71.93
2023-04-15T23:51:48.800Z,72.09
2023-04-15T23:54:16.692Z,72.10
2023-04-15T23:56:44.545Z,72.22
2023-04-15T23:59:12.570Z,72.40
